createdAt,value
2019-05-06T00:00:26.984Z,93684.46
2019-05-06T00:02:56.457Z,93681.30
2019-05-06T00:05:25.945Z,93680.76
2019-05-06T00:07:55.439Z,93686.05
2019-05-06T00:10:27.026Z,93692.70
2019-05-06T00:12:56.854Z,93686.37
2019-05-06T00:15:26.720Z,93692.20
2019-05-06T00:17:56.610Z,93699.37
2019-05-06T00:20:26.111Z,93697.24
2019-05-06T00:22:59.569Z,93686.16
2019-05-06T00:26:00.227Z,93688.02
2019-05-06T00:28:38.416Z,93684.35
2019-05-06T00:31:13.270Z,93682.66
2019-05-06T00:33:40.968Z,93678.41
2019-05-06T00:36:10.458Z,93674.20
2019-05-06T00:38:41.564Z,93675.03
2019-05-06T00:41:15.367Z,93671.57
2019-05-06T00:43:44.856Z,93668.43
2019-05-06T00:46:16.053Z,93675.81
2019-05-06T00:48:45.539Z,93675.79
2019-05-06T00:51:15.033Z,93673.42
2019-05-06T00:53:48.394Z,93671.55
2019-05-06T00:56:18.163Z,93672.86
2019-05-06T00:58:47.638Z,93677.59
2019-05-06T01:01:26.028Z,93668.29
2019-05-06T01:03:48.335Z,93667.95
2019-05-06T01:06:17.877Z,93668.45
2019-05-06T01:08:47.428Z,93678.16
2019-05-06T01:11:17.025Z,93673.27
2019-05-06T01:13:58.872Z,93671.12
2019-05-06T01:16:28.353Z,93665.00
2019-05-06T01:18:57.820Z,93666.56
2019-05-06T01:21:27.304Z,93671.84
2019-05-06T01:23:56.816Z,93668.62
2019-05-06T01:26:26.478Z,93674.63
2019-05-06T01:28:56.068Z,93679.69
2019-05-06T01:31:39.506Z,93678.43
2019-05-06T01:33:56.952Z,93679.50
2019-05-06T01:36:26.519Z,93675.82
2019-05-06T01:39:04.275Z,93669.23
2019-05-06T01:41:45.621Z,93666.04
2019-05-06T01:44:15.209Z,93662.45
2019-05-06T01:46:44.828Z,93670.55
2019-05-06T01:49:14.451Z,93674.75
2019-05-06T01:51:43.966Z,93673.98
2019-05-06T01:54:14.186Z,93675.89
2019-05-06T01:56:44.472Z,93682.05
2019-05-06T01:59:14.262Z,93683.09
2019-05-06T02:01:57.431Z,93700.20
2019-05-06T02:04:14.981Z,93692.68
2019-05-06T02:06:44.462Z,93686.02
2019-05-06T02:09:17.946Z,93680.64
2019-05-06T02:11:48.189Z,93673.15
2019-05-06T02:14:18.171Z,93676.83
2019-05-06T02:16:47.728Z,93674.75
2019-05-06T02:19:17.362Z,93670.79
2019-05-06T02:21:54.437Z,93671.31
2019-05-06T02:24:28.754Z,93666.05
2019-05-06T02:26:58.283Z,93665.77
2019-05-06T02:29:30.183Z,93671.35
2019-05-06T02:32:30.249Z,93683.69
2019-05-06T02:35:14.977Z,93684.80
2019-05-06T02:37:46.465Z,93684.32
2019-05-06T02:40:25.558Z,93683.28
2019-05-06T02:42:55.527Z,93681.96
2019-05-06T02:45:25.170Z,93680.38
2019-05-06T02:48:13.939Z,93677.17
2019-05-06T02:51:03.718Z,93680.05
2019-05-06T02:53:33.849Z,93687.41
2019-05-06T02:56:04.346Z,93690.00
2019-05-06T02:58:34.103Z,93690.76
2019-05-06T03:01:04.028Z,93688.61
2019-05-06T03:03:34.122Z,93688.09
2019-05-06T03:06:04.415Z,93692.88
2019-05-06T03:08:34.737Z,93683.69
2019-05-06T03:11:04.545Z,93684.77
2019-05-06T03:13:34.378Z,93688.17
2019-05-06T03:16:05.936Z,93679.45
2019-05-06T03:18:35.315Z,93678.91
2019-05-06T03:21:24.748Z,93673.59
2019-05-06T03:24:14.576Z,93675.43
2019-05-06T03:26:43.856Z,93683.86
2019-05-06T03:29:13.767Z,93685.77
2019-05-06T03:31:46.322Z,93687.61
2019-05-06T03:34:36.514Z,93692.08
2019-05-06T03:36:48.441Z,93694.23
2019-05-06T03:39:16.950Z,93708.44
2019-05-06T03:41:46.430Z,93715.75
2019-05-06T03:44:16.781Z,93713.16
2019-05-06T03:47:05.682Z,93716.11
2019-05-06T03:49:38.143Z,93718.06
2019-05-06T03:52:07.608Z,93722.54
2019-05-06T03:54:37.868Z,93727.29
2019-05-06T03:57:07.346Z,93728.64
2019-05-06T03:59:39.028Z,93728.95
2019-05-06T04:02:09.722Z,93729.41
2019-05-06T04:04:39.181Z,93732.36
2019-05-06T04:07:08.887Z,93732.04
2019-05-06T04:09:38.428Z,93730.96
2019-05-06T04:12:07.983Z,93727.52
2019-05-06T04:14:37.563Z,93729.48
2019-05-06T04:17:15.707Z,93730.91
2019-05-06T04:19:49.099Z,93730.22
2019-05-06T04:22:45.478Z,93724.77
2019-05-06T04:25:36.632Z,93721.50
2019-05-06T04:28:13.872Z,93718.72
2019-05-06T04:30:43.736Z,93718.02
2019-05-06T04:33:17.295Z,93718.64
2019-05-06T04:35:44.669Z,93718.58
2019-05-06T04:38:14.159Z,93721.28
2019-05-06T04:40:44.189Z,93710.20
2019-05-06T04:43:13.829Z,93697.92
2019-05-06T04:45:43.597Z,93703.11
2019-05-06T04:48:14.535Z,93705.19
2019-05-06T04:50:44.729Z,93707.83
2019-05-06T04:53:14.443Z,93714.23
2019-05-06T04:55:44.194Z,93713.80
2019-05-06T04:58:14.247Z,93722.84
2019-05-06T05:00:44.675Z,93726.57
2019-05-06T05:03:14.398Z,93716.08
2019-05-06T05:05:44.765Z,93702.84
2019-05-06T05:08:14.983Z,93711.25
2019-05-06T05:11:09.914Z,93719.63
2019-05-06T05:14:04.423Z,93724.05
2019-05-06T05:16:52.914Z,93734.29
2019-05-06T05:19:23.085Z,93748.50
2019-05-06T05:21:55.719Z,93752.94
2019-05-06T05:24:25.316Z,93754.23
2019-05-06T05:26:54.931Z,93737.22
2019-05-06T05:29:24.422Z,93729.47
2019-05-06T05:31:54.111Z,93723.14
2019-05-06T05:34:36.944Z,93717.05
2019-05-06T05:36:54.834Z,93719.72
2019-05-06T05:39:24.380Z,93720.04
2019-05-06T05:41:55.562Z,93716.22
2019-05-06T05:44:28.324Z,93709.16
2019-05-06T05:46:57.876Z,93717.20
2019-05-06T05:49:35.085Z,93713.51
2019-05-06T05:52:04.729Z,93717.27
2019-05-06T05:54:34.341Z,93712.84
2019-05-06T05:57:03.810Z,93714.98
2019-05-06T05:59:33.330Z,93715.79
2019-05-06T06:02:03.798Z,93712.44
2019-05-06T06:04:33.512Z,93712.49
2019-05-06T06:07:03.013Z,93713.26
2019-05-06T06:09:36.235Z,93703.53
2019-05-06T06:12:07.765Z,93707.55
2019-05-06T06:14:56.499Z,93717.37
2019-05-06T06:17:45.122Z,93718.72
2019-05-06T06:20:32.826Z,93728.64
2019-05-06T06:23:08.123Z,93729.92
2019-05-06T06:25:37.724Z,93731.48
2019-05-06T06:28:07.192Z,93737.27
2019-05-06T06:30:44.787Z,93738.67
2019-05-06T06:33:14.265Z,93747.77
2019-05-06T06:35:53.700Z,93736.23
2019-05-06T06:38:28.796Z,93731.23
2019-05-06T06:41:02.529Z,93737.08
2019-05-06T06:43:32.448Z,93732.90
2019-05-06T06:46:02.563Z,93733.44
2019-05-06T06:48:32.181Z,93733.14
2019-05-06T06:51:03.487Z,93724.64
2019-05-06T06:53:33.137Z,93712.20
2019-05-06T06:56:24.629Z,93715.38
2019-05-06T06:59:07.668Z,93717.23
2019-05-06T07:01:46.714Z,93716.19
2019-05-06T07:04:23.143Z,93716.70
2019-05-06T07:06:54.908Z,93710.88
2019-05-06T07:09:24.395Z,93705.61
2019-05-06T07:11:53.926Z,93705.61
2019-05-06T07:14:23.483Z,93704.59
2019-05-06T07:16:53.421Z,93712.56
2019-05-06T07:19:29.657Z,93715.46
2019-05-06T07:21:59.354Z,93718.91
2019-05-06T07:24:28.871Z,93715.73
2019-05-06T07:27:17.965Z,93711.75
2019-05-06T07:29:48.511Z,93713.59
2019-05-06T07:32:18.251Z,93709.88
2019-05-06T07:34:47.780Z,93710.11
2019-05-06T07:37:17.313Z,93708.47
2019-05-06T07:39:46.810Z,93713.17
2019-05-06T07:42:32.278Z,93707.30
2019-05-06T07:45:22.689Z,93711.09
2019-05-06T07:47:55.531Z,93702.65
2019-05-06T07:50:25.060Z,93698.48
2019-05-06T07:53:06.674Z,93694.95
2019-05-06T07:55:36.701Z,93699.81
2019-05-06T07:58:06.622Z,93697.79
2019-05-06T08:00:36.620Z,93689.48
2019-05-06T08:03:06.765Z,93695.32
2019-05-06T08:05:52.783Z,93696.46
2019-05-06T08:08:16.646Z,93711.48
2019-05-06T08:10:45.463Z,93732.08
2019-05-06T08:13:15.023Z,93726.53
2019-05-06T08:15:44.533Z,93717.33
2019-05-06T08:18:14.165Z,93711.92
2019-05-06T08:20:43.751Z,93734.45
2019-05-06T08:23:18.473Z,93738.66
2019-05-06T08:25:54.335Z,93747.31
2019-05-06T08:28:22.555Z,93747.20
2019-05-06T08:30:53.090Z,93773.31
2019-05-06T08:33:22.846Z,93779.88
2019-05-06T08:35:53.322Z,93784.51
2019-05-06T08:38:23.794Z,93792.95
2019-05-06T08:40:53.491Z,93771.99
2019-05-06T08:43:22.998Z,93781.23
2019-05-06T08:45:52.960Z,93777.25
2019-05-06T08:48:22.560Z,93786.25
2019-05-06T08:51:12.709Z,93780.69
2019-05-06T08:54:36.532Z,93784.50
2019-05-06T08:57:06.093Z,93801.38
2019-05-06T08:59:35.611Z,93806.40
2019-05-06T09:02:05.565Z,93805.99
2019-05-06T09:04:35.861Z,93815.03
2019-05-06T09:07:06.850Z,93809.61
2019-05-06T09:09:36.362Z,93809.81
2019-05-06T09:12:05.933Z,93807.89
2019-05-06T09:14:35.427Z,93810.09
2019-05-06T09:17:05.665Z,93829.91
2019-05-06T09:19:35.166Z,93833.52
2019-05-06T09:22:04.782Z,93824.77
2019-05-06T09:24:34.260Z,93808.21
2019-05-06T09:27:17.475Z,93799.24
2019-05-06T09:29:51.971Z,93817.22
2019-05-06T09:32:36.016Z,93819.77
2019-05-06T09:35:03.281Z,93820.33
2019-05-06T09:37:32.825Z,93820.28
2019-05-06T09:40:02.996Z,93818.09
2019-05-06T09:42:32.806Z,93807.95
2019-05-06T09:45:02.526Z,93807.47
2019-05-06T09:47:56.708Z,93800.97
2019-05-06T09:50:38.998Z,93796.87
2019-05-06T09:53:13.130Z,93790.77
2019-05-06T09:56:03.414Z,93791.78
2019-05-06T09:58:34.002Z,93805.89
2019-05-06T10:01:04.226Z,93806.48
2019-05-06T10:03:33.744Z,93816.20
2019-05-06T10:06:03.364Z,93817.11
2019-05-06T10:08:32.889Z,93820.44
2019-05-06T10:11:03.144Z,93816.50
2019-05-06T10:13:33.203Z,93808.39
2019-05-06T10:16:03.194Z,93797.69
2019-05-06T10:18:32.942Z,93801.00
2019-05-06T10:21:02.613Z,93786.39
2019-05-06T10:23:32.746Z,93801.80
2019-05-06T10:26:04.524Z,93795.32
2019-05-06T10:28:52.300Z,93781.58
2019-05-06T10:31:22.037Z,93790.18
2019-05-06T10:34:09.080Z,93789.52
2019-05-06T10:37:12.577Z,93785.11
2019-05-06T10:39:37.466Z,93771.91
2019-05-06T10:42:13.471Z,93788.25
2019-05-06T10:48:05.361Z,93777.00
2019-05-06T10:50:39.324Z,93769.65
2019-05-06T10:53:19.694Z,93766.41
2019-05-06T10:55:57.847Z,93772.09
2019-05-06T10:58:27.442Z,93742.19
2019-05-06T11:01:22.980Z,93755.92
2019-05-06T11:03:52.518Z,93754.92
2019-05-06T11:06:22.250Z,93770.85
2019-05-06T11:08:52.551Z,93757.55
2019-05-06T11:11:32.784Z,93763.14
2019-05-06T11:13:55.712Z,93758.70
2019-05-06T11:16:25.244Z,93766.46
2019-05-06T11:18:54.771Z,93763.83
2019-05-06T11:21:24.252Z,93776.56
2019-05-06T11:23:53.765Z,93780.55
2019-05-06T11:26:23.795Z,93788.45
2019-05-06T11:29:04.738Z,93803.73
2019-05-06T11:31:56.951Z,93811.53
2019-05-06T11:34:34.180Z,93811.18
2019-05-06T11:37:42.301Z,93820.00
2019-05-06T11:39:59.903Z,93812.22
2019-05-06T11:42:33.514Z,93811.81
2019-05-06T11:45:03.013Z,93810.75
2019-05-06T11:47:32.524Z,93811.55
2019-05-06T11:50:04.973Z,93809.31
2019-05-06T11:52:34.604Z,93802.78
2019-05-06T11:55:04.539Z,93791.91
2019-05-06T11:57:34.064Z,93774.85
2019-05-06T12:00:04.037Z,93778.16
2019-05-06T12:02:33.497Z,93777.54
2019-05-06T12:05:03.082Z,93762.28
2019-05-06T12:07:33.220Z,93758.98
2019-05-06T12:10:03.060Z,93738.67
2019-05-06T12:12:32.532Z,93717.11
2019-05-06T12:15:03.475Z,93714.29
2019-05-06T12:17:33.278Z,93705.48
2019-05-06T12:20:03.157Z,93699.55
2019-05-06T12:22:35.820Z,93708.00
2019-05-06T12:25:12.614Z,93746.61
2019-05-06T12:27:44.820Z,93764.23
2019-05-06T12:30:17.000Z,93766.83
2019-05-06T12:33:14.592Z,93770.20
2019-05-06T12:35:47.814Z,93771.81
2019-05-06T12:38:30.346Z,93773.72
2019-05-06T12:40:54.433Z,93775.52
2019-05-06T12:43:40.172Z,93782.23
2019-05-06T12:46:22.618Z,93781.79
2019-05-06T12:48:52.242Z,93781.32
2019-05-06T12:51:22.714Z,93774.46
2019-05-06T12:53:52.900Z,93775.00
2019-05-06T12:56:22.724Z,93768.11
2019-05-06T12:58:52.658Z,93759.19
2019-05-06T13:01:33.488Z,93751.86
2019-05-06T13:04:04.505Z,93742.97
2019-05-06T13:06:33.427Z,93734.11
2019-05-06T13:09:05.133Z,93745.33
2019-05-06T13:11:34.461Z,93742.25
2019-05-06T13:14:04.395Z,93743.92
2019-05-06T13:16:34.017Z,93743.26
2019-05-06T13:19:03.792Z,93735.53
2019-05-06T13:21:42.875Z,93728.73
2019-05-06T13:24:12.470Z,93726.18
2019-05-06T13:26:43.132Z,93720.98
2019-05-06T13:29:18.929Z,93718.19
2019-05-06T13:31:49.787Z,93716.30
2019-05-06T13:34:23.229Z,93706.36
2019-05-06T13:36:53.273Z,93697.95
2019-05-06T13:39:23.849Z,93689.31
2019-05-06T13:41:55.428Z,93686.59
2019-05-06T13:44:25.011Z,93673.70
2019-05-06T13:46:55.295Z,93666.61
2019-05-06T13:49:46.146Z,93670.09
2019-05-06T13:52:18.485Z,93682.88
2019-05-06T13:54:48.067Z,93689.29
2019-05-06T13:57:17.647Z,93685.66
2019-05-06T13:59:47.203Z,93685.16
2019-05-06T14:02:23.826Z,93689.69
2019-05-06T14:04:54.529Z,93681.97
2019-05-06T14:07:24.554Z,93688.38
2019-05-06T14:09:54.219Z,93682.56
2019-05-06T14:12:23.784Z,93685.80
2019-05-06T14:14:53.573Z,93687.67
2019-05-06T14:17:23.068Z,93681.07
2019-05-06T14:19:53.409Z,93676.86
2019-05-06T14:22:23.395Z,93676.16
2019-05-06T14:25:12.667Z,93685.80
2019-05-06T14:27:43.446Z,93689.56
2019-05-06T14:30:19.497Z,93672.19
2019-05-06T14:32:49.002Z,93680.13
2019-05-06T14:35:18.485Z,93672.17
2019-05-06T14:37:48.042Z,93677.23
2019-05-06T14:40:22.570Z,93666.41
2019-05-06T14:42:53.138Z,93668.76
2019-05-06T14:45:22.781Z,93677.45
2019-05-06T14:47:52.783Z,93676.04
2019-05-06T14:50:31.445Z,93678.37
2019-05-06T14:52:54.751Z,93674.13
2019-05-06T14:55:28.831Z,93673.80
2019-05-06T14:57:58.303Z,93675.52
2019-05-06T15:00:27.885Z,93678.09
2019-05-06T15:02:57.442Z,93692.34
2019-05-06T15:05:26.950Z,93686.77
2019-05-06T15:07:56.553Z,93706.22
2019-05-06T15:10:26.644Z,93694.68
2019-05-06T15:12:56.220Z,93698.88
2019-05-06T15:15:25.762Z,93707.38
2019-05-06T15:17:55.481Z,93712.20
2019-05-06T15:20:25.037Z,93716.37
2019-05-06T15:22:54.472Z,93733.95
2019-05-06T15:25:23.971Z,93730.33
2019-05-06T15:27:53.486Z,93742.45
2019-05-06T15:30:33.502Z,93742.00
2019-05-06T15:33:02.582Z,93752.30
2019-05-06T15:35:52.387Z,93764.12
2019-05-06T15:38:25.155Z,93774.20
2019-05-06T15:40:54.663Z,93779.21
2019-05-06T15:43:26.420Z,93775.29
2019-05-06T15:45:55.873Z,93790.50
2019-05-06T15:48:27.179Z,93789.79
2019-05-06T15:50:56.656Z,93788.28
2019-05-06T15:53:26.123Z,93789.58
2019-05-06T15:55:55.619Z,93792.97
2019-05-06T15:58:25.128Z,93787.20
2019-05-06T16:00:54.613Z,93790.05
2019-05-06T16:03:24.103Z,93801.09
2019-05-06T16:05:55.208Z,93794.66
2019-05-06T16:08:25.010Z,93811.16
2019-05-06T16:10:58.199Z,93809.09
2019-05-06T16:13:25.738Z,93824.70
2019-05-06T16:15:55.469Z,93831.62
2019-05-06T16:18:24.982Z,93839.08
2019-05-06T16:20:57.598Z,93843.78
2019-05-06T16:23:36.689Z,93857.27
2019-05-06T16:26:06.173Z,93878.52
2019-05-06T16:28:35.681Z,93880.66
2019-05-06T16:31:05.149Z,93881.34
2019-05-06T16:33:34.709Z,93885.98
2019-05-06T16:36:04.216Z,93891.30
2019-05-06T16:38:33.715Z,93888.06
2019-05-06T16:41:12.333Z,93874.70
2019-05-06T16:43:35.266Z,93892.77
2019-05-06T16:46:04.732Z,93882.06
2019-05-06T16:48:34.261Z,93883.58
2019-05-06T16:51:06.510Z,93871.83
2019-05-06T16:53:36.371Z,93872.34
2019-05-06T16:56:33.294Z,93871.18
2019-05-06T16:59:04.864Z,93885.25
2019-05-06T17:01:35.941Z,93884.19
2019-05-06T17:04:15.324Z,93894.73
2019-05-06T17:06:45.410Z,93885.29
2019-05-06T17:09:20.914Z,93898.64
2019-05-06T17:11:47.969Z,93896.70
2019-05-06T17:14:17.539Z,93879.68
2019-05-06T17:16:47.025Z,93889.37
2019-05-06T17:19:16.589Z,93890.32
2019-05-06T17:21:48.348Z,93879.73
2019-05-06T17:24:17.467Z,93880.47
2019-05-06T17:26:47.028Z,93878.77
2019-05-06T17:29:33.950Z,93881.58
2019-05-06T17:32:25.211Z,93880.19
2019-05-06T17:34:57.714Z,93872.19
2019-05-06T17:37:44.282Z,93872.63
2019-05-06T17:40:16.194Z,93865.66
2019-05-06T17:42:45.715Z,93875.20
2019-05-06T17:45:33.695Z,93873.39
2019-05-06T17:48:27.664Z,93874.80
2019-05-06T17:51:15.590Z,93872.19
2019-05-06T17:53:48.660Z,93875.66
2019-05-06T17:56:18.521Z,93867.45
2019-05-06T17:58:48.111Z,93869.02
2019-05-06T18:01:23.266Z,93862.83
2019-05-06T18:03:52.712Z,93863.76
2019-05-06T18:06:22.928Z,93867.80
2019-05-06T18:08:52.890Z,93867.45
2019-05-06T18:11:22.582Z,93863.59
2019-05-06T18:13:52.247Z,93862.93
2019-05-06T18:16:22.378Z,93861.38
2019-05-06T18:18:52.386Z,93865.77
2019-05-06T18:21:23.083Z,93870.70
2019-05-06T18:23:52.718Z,93872.31
2019-05-06T18:26:23.005Z,93878.97
2019-05-06T18:28:52.918Z,93891.86
2019-05-06T18:31:22.469Z,93896.36
2019-05-06T18:33:52.760Z,93901.80
2019-05-06T18:36:22.864Z,93911.39
2019-05-06T18:38:52.796Z,93913.50
2019-05-06T18:41:23.616Z,93915.31
2019-05-06T18:43:53.688Z,93916.06
2019-05-06T18:46:23.315Z,93915.84
2019-05-06T18:48:52.781Z,93923.75
2019-05-06T18:51:22.592Z,93928.17
2019-05-06T18:53:53.033Z,93929.37
2019-05-06T18:56:22.631Z,93935.42
2019-05-06T18:58:52.996Z,93931.34
2019-05-06T19:01:23.404Z,93934.83
2019-05-06T19:03:59.845Z,93935.38
2019-05-06T19:06:29.312Z,93936.53
2019-05-06T19:09:05.846Z,93941.27
2019-05-06T19:11:35.391Z,93941.77
2019-05-06T19:14:04.929Z,93942.33
2019-05-06T19:16:48.849Z,93945.89
2019-05-06T19:19:06.157Z,93934.23
2019-05-06T19:21:35.631Z,93934.74
2019-05-06T19:24:05.216Z,93939.10
2019-05-06T19:26:34.704Z,93942.02
2019-05-06T19:29:04.649Z,93945.03
2019-05-06T19:31:34.173Z,93952.69
2019-05-06T19:34:03.641Z,93954.29
2019-05-06T19:36:34.833Z,93950.67
2019-05-06T19:39:13.824Z,93957.50
2019-05-06T19:41:43.432Z,93953.48
2019-05-06T19:44:12.970Z,93961.48
2019-05-06T19:46:42.545Z,93969.27
2019-05-06T19:49:13.257Z,93971.47
2019-05-06T19:51:42.916Z,93977.50
2019-05-06T19:54:12.709Z,93970.67
2019-05-06T19:56:42.423Z,93968.66
2019-05-06T19:59:14.770Z,93972.19
2019-05-06T20:01:44.245Z,93979.41
2019-05-06T20:04:13.740Z,93985.90
2019-05-06T20:06:49.235Z,93984.50
2019-05-06T20:09:43.543Z,93990.88
2019-05-06T20:12:19.390Z,93988.41
2019-05-06T20:14:48.896Z,93992.23
2019-05-06T20:17:18.397Z,93996.70
2019-05-06T20:19:47.891Z,94003.73
2019-05-06T20:22:17.372Z,94007.76
2019-05-06T20:24:48.066Z,94010.78
2019-05-06T20:27:17.541Z,94008.77
2019-05-06T20:29:47.099Z,94018.72
2019-05-06T20:32:16.585Z,94020.83
2019-05-06T20:34:46.102Z,94021.70
2019-05-06T20:37:15.587Z,94015.00
2019-05-06T20:39:45.139Z,94021.23
2019-05-06T20:42:14.655Z,94022.88
2019-05-06T20:44:44.138Z,94024.08
2019-05-06T20:47:13.638Z,94029.23
2019-05-06T20:49:43.352Z,94036.45
2019-05-06T20:52:12.870Z,94027.72
2019-05-06T20:54:42.788Z,94035.55
2019-05-06T20:57:12.584Z,94035.44
2019-05-06T20:59:42.224Z,94037.14
2019-05-06T21:02:12.435Z,94024.31
2019-05-06T21:04:43.141Z,94036.14
2019-05-06T21:07:12.825Z,94037.27
2019-05-06T21:09:43.151Z,94035.05
2019-05-06T21:12:12.842Z,94044.80
2019-05-06T21:14:42.328Z,94052.41
2019-05-06T21:17:12.522Z,94050.33
2019-05-06T21:19:42.167Z,94050.33
2019-05-06T21:22:13.291Z,94037.17
2019-05-06T21:24:43.182Z,94049.45
2019-05-06T21:27:12.804Z,94049.53
2019-05-06T21:29:42.285Z,94047.24
2019-05-06T21:32:11.780Z,94046.73
2019-05-06T21:34:43.225Z,94053.25
2019-05-06T21:37:12.451Z,94053.16
2019-05-06T21:39:42.460Z,94060.56
2019-05-06T21:42:12.251Z,94053.02
2019-05-06T21:44:42.929Z,94057.66
2019-05-06T21:47:12.451Z,94052.94
2019-05-06T21:49:42.273Z,94052.83
2019-05-06T21:52:13.092Z,94070.58
2019-05-06T21:54:43.432Z,94067.36
2019-05-06T21:57:13.198Z,94069.47
2019-05-06T21:59:42.869Z,94070.28
2019-05-06T22:02:13.975Z,94080.09
2019-05-06T22:04:43.475Z,94069.94
2019-05-06T22:07:13.005Z,94074.06
2019-05-06T22:09:43.029Z,94079.36
2019-05-06T22:12:12.633Z,94071.34
2019-05-06T22:14:42.356Z,94081.97
2019-05-06T22:17:13.941Z,94084.88
2019-05-06T22:19:43.270Z,94090.52
2019-05-06T22:22:14.646Z,94085.76
2019-05-06T22:24:48.475Z,94091.02
2019-05-06T22:27:18.126Z,94098.59
2019-05-06T22:29:47.955Z,94091.70
2019-05-06T22:32:17.448Z,94097.11
2019-05-06T22:34:46.975Z,94094.88
2019-05-06T22:37:16.455Z,94095.16
2019-05-06T22:39:46.097Z,94100.19
2019-05-06T22:42:15.609Z,94101.37
2019-05-06T22:44:45.139Z,94102.13
2019-05-06T22:47:14.741Z,94100.93
2019-05-06T22:49:44.206Z,94107.14
2019-05-06T22:52:13.763Z,94092.31
2019-05-06T22:54:43.514Z,94111.54
2019-05-06T22:57:13.119Z,94118.53
2019-05-06T22:59:42.918Z,94111.16
2019-05-06T23:02:25.406Z,94108.15
2019-05-06T23:04:57.428Z,94106.47
2019-05-06T23:07:26.914Z,94112.98
2019-05-06T23:09:58.460Z,94115.02
2019-05-06T23:12:27.965Z,94113.78
2019-05-06T23:14:57.497Z,94126.03
2019-05-06T23:17:26.937Z,94128.14
2019-05-06T23:19:56.417Z,94130.94
2019-05-06T23:22:25.885Z,94124.09
2019-05-06T23:24:56.239Z,94137.67
2019-05-06T23:27:25.719Z,94137.43
2019-05-06T23:29:55.210Z,94148.21
2019-05-06T23:32:24.699Z,94148.49
2019-05-06T23:34:54.189Z,94151.59
2019-05-06T23:37:23.222Z,94157.06
2019-05-06T23:40:35.521Z,94152.09
2019-05-06T23:43:42.596Z,94162.33
2019-05-06T23:46:47.797Z,94152.80
2019-05-06T23:49:53.245Z,94168.45
2019-05-06T23:52:58.358Z,94165.06
2019-05-06T23:56:03.759Z,94170.55
2019-05-06T23:58:33.243Z,94171.36
